^^
Datos históricos de la estación: Murcia-Puente Tocinos
Diario Informe para Marzo 11, 2019 Unidades:  Métrico    Ingés   Ambas
Diario Semanal Mensual Anual
  Máxima: Mínima: Promedio:
Temperatura: 18 °C 11 °C 14.4 °C
Punto de rocio: 6.9 °C 0.8 °C 3.3 °C
Humedad: 56% 38.8% 48%
Velocidad viento: 28.7km/h 3.9km/h 15km/h
Racha viento: 52.1km/h - -
Viento- - Oeste
Presión: 1014.9 hPa 1010.3 hPa -
Precipitación: 0.0 mm    
 
 
Tabla de datos para Marzo 11, 2019
Hora Temperatura Punto de rocio Presión Viento Velocidad viento Racha viento Humedad Intensidad lluvia(por hora) Nubes
00:04 12.6 °C 2.4 °C 1013.7 hPa NO 7.4 km/h 14.8 km/h 50% 0.0 mm
00:09 12.6 °C 2.4 °C 1014.0 hPa NE 7.6 km/h 16.7 km/h 50% 0.0 mm
00:14 12.6 °C 2.4 °C 1014.0 hPa Este 8.2 km/h 19.3 km/h 50% 0.0 mm
00:19 12.6 °C 2.4 °C 1014.0 hPa NNE 8.4 km/h 20.9 km/h 50% 0.0 mm
00:24 12.6 °C 2.4 °C 1014.2 hPa ENE 8.6 km/h 20.9 km/h 50% 0.0 mm
00:29 12.6 °C 2.4 °C 1014.2 hPa ENE 8.7 km/h 14.5 km/h 50% 0.0 mm
00:34 12.4 °C 2.3 °C 1014.5 hPa Este 4.7 km/h 9.5 km/h 50.1% 0.0 mm
00:39 12.3 °C 2.3 °C 1014.5 hPa ESE 3.9 km/h 13 km/h 50.4% 0.0 mm
00:44 12.3 °C 2.2 °C 1014.5 hPa SE 6.4 km/h 14.8 km/h 50% 0.0 mm
00:49 12.3 °C 2 °C 1014.5 hPa Sur 6.9 km/h 14.5 km/h 49.5% 0.0 mm
00:54 12.3 °C 1.9 °C 1014.5 hPa SE 8.1 km/h 14.5 km/h 49% 0.0 mm
00:59 12.4 °C 1.9 °C 1014.2 hPa SE 8.4 km/h 15.6 km/h 49% 0.0 mm
01:04 12.4 °C 1.9 °C 1014.3 hPa SSE 8.6 km/h 16.1 km/h 48.8% 0.0 mm
01:09 12.3 °C 1.9 °C 1014.3 hPa SSE 8.7 km/h 16.7 km/h 48.9% 0.0 mm
01:14 12.3 °C 1.6 °C 1014.3 hPa Sur 9.4 km/h 20.9 km/h 48% 0.0 mm
01:19 12.3 °C 1.6 °C 1014.3 hPa Sur 9.5 km/h 24.1 km/h 48% 0.0 mm
01:24 12.3 °C 1.6 °C 1014.3 hPa ONO 11.5 km/h 24.1 km/h 48% 0.0 mm
01:29 12.3 °C 1.5 °C 1014.2 hPa Sur 11.9 km/h 14.8 km/h 47.6% 0.0 mm
01:34 12.2 °C 1.5 °C 1014.2 hPa SE 7.8 km/h 14.5 km/h 47.8% 0.0 mm
01:39 12.2 °C 1.5 °C 1014.4 hPa SSE 6.9 km/h 12.2 km/h 48% 0.0 mm
01:44 12.1 °C 1.4 °C 1014.4 hPa SSE 6.9 km/h 17.2 km/h 48% 0.0 mm
01:49 12.1 °C 1.2 °C 1014.4 hPa Sur 6.9 km/h 18.5 km/h 47.2% 0.0 mm
01:54 12.1 °C 1.1 °C 1014.8 hPa SE 9.5 km/h 22 km/h 47% 0.0 mm
01:59 12.2 °C 1.2 °C 1014.8 hPa SSE 10 km/h 22.5 km/h 46.9% 0.0 mm
02:04 12.2 °C 1.2 °C 1014.8 hPa SO 10 km/h 22.5 km/h 47% 0.0 mm
02:09 12.1 °C 1.1 °C 1014.8 hPa SO 10 km/h 20.9 km/h 47% 0.0 mm
02:14 12.1 °C 1.1 °C 1014.8 hPa NO 7 km/h 11.1 km/h 47% 0.0 mm
02:19 11.9 °C 1 °C 1014.8 hPa Oeste 6.5 km/h 14.8 km/h 47% 0.0 mm
02:24 11.8 °C 0.9 °C 1014.8 hPa ONO 7.4 km/h 18.5 km/h 47.3% 0.0 mm
02:29 11.7 °C 1.1 °C 1014.6 hPa Oeste 7.6 km/h 19.3 km/h 48% 0.0 mm
02:34 11.7 °C 1 °C 1014.6 hPa Oeste 9.9 km/h 25.9 km/h 48% 0.0 mm
02:39 11.6 °C 0.9 °C 1014.6 hPa Oeste 10.3 km/h 25.7 km/h 48% 0.0 mm
02:44 11.4 °C 0.8 °C 1014.3 hPa ONO 11 km/h 19 km/h 48% 0.0 mm
02:49 11.4 °C 0.8 °C 1014.4 hPa ONO 11.1 km/h 20.4 km/h 48.1% 0.0 mm
02:54 11.4 °C 0.9 °C 1014.4 hPa ONO 11.1 km/h 34.3 km/h 48.6% 0.0 mm
02:59 11.3 °C 0.9 °C 1014.4 hPa ONO 11.1 km/h 33.8 km/h 49% 0.0 mm
03:04 11.4 °C 1.1 °C 1014.4 hPa ONO 15.7 km/h 43.1 km/h 49% 0.0 mm
03:09 11.6 °C 1.2 °C 1014.8 hPa ONO 16.4 km/h 43.5 km/h 49% 0.0 mm
03:14 11.6 °C 1.2 °C 1014.8 hPa ONO 21.1 km/h 44.3 km/h 49% 0.0 mm
03:19 11.6 °C 1.3 °C 1014.8 hPa ONO 22.1 km/h 43.5 km/h 49.4% 0.0 mm
03:24 11.5 °C 1.5 °C 1014.8 hPa ONO 23.4 km/h 41.8 km/h 50% 0.0 mm
03:29 11.5 °C 1.4 °C 1014.7 hPa ONO 23.7 km/h 38.9 km/h 50% 0.0 mm
03:34 11.5 °C 1.5 °C 1014.7 hPa Oeste 21.4 km/h 38.6 km/h 50% 0.0 mm
03:39 11.5 °C 1.4 °C 1014.9 hPa Oeste 20.9 km/h 38.1 km/h 50% 0.0 mm
03:44 11.5 °C 1.4 °C 1014.9 hPa Oeste 19.3 km/h 41.2 km/h 50% 0.0 mm
03:49 11.4 °C 1.4 °C 1014.9 hPa Oeste 19 km/h 41.8 km/h 50% 0.0 mm
03:54 11.4 °C 1.3 °C 1014.9 hPa Oeste 19 km/h 48.4 km/h 50% 0.0 mm
03:59 11.5 °C 1.4 °C 1014.5 hPa ONO 19 km/h 48.3 km/h 50% 0.0 mm
04:04 11.4 °C 1.4 °C 1014.5 hPa Oeste 25.3 km/h 46.7 km/h 50% 0.0 mm
04:09 11.4 °C 1.3 °C 1014.5 hPa Oeste 26.2 km/h 37 km/h 50% 0.0 mm
04:14 11.3 °C 1.2 °C 1014.2 hPa Oeste 22.7 km/h 37 km/h 50% 0.0 mm
04:19 11.3 °C 1.3 °C 1014.2 hPa Oeste 22.1 km/h 42 km/h 50.3% 0.0 mm
04:24 11.2 °C 1.5 °C 1014.2 hPa Oeste 22.1 km/h 42.6 km/h 51% 0.0 mm
04:29 11.2 °C 1.4 °C 1014.2 hPa Oeste 22.1 km/h 47.8 km/h 51% 0.0 mm
04:34 11.2 °C 1.4 °C 1014.4 hPa ONO 22.1 km/h 48.3 km/h 51% 0.0 mm
04:39 11.1 °C 1.3 °C 1014.4 hPa Oeste 22.1 km/h 48.3 km/h 51% 0.0 mm
04:44 11.1 °C 1.3 °C 1014.4 hPa Oeste 19.5 km/h 36.2 km/h 51% 0.0 mm
04:49 11.1 °C 1.3 °C 1014.4 hPa Oeste 19 km/h 37 km/h 51% 0.0 mm
04:54 11 °C 1.2 °C 1014.4 hPa Oeste 19 km/h 34.6 km/h 51% 0.0 mm
04:59 11.1 °C 1.3 °C 1014.2 hPa ONO 19 km/h 37 km/h 51% 0.0 mm
05:04 11.2 °C 1.3 °C 1014.2 hPa ONO 20.6 km/h 44.9 km/h 50.4% 0.0 mm
05:09 11.2 °C 1.2 °C 1014.4 hPa ONO 20.9 km/h 46.3 km/h 50% 0.0 mm
05:14 11.3 °C 1.2 °C 1014.4 hPa ONO 26 km/h 52.1 km/h 50% 0.0 mm
05:19 11.3 °C 1.2 °C 1014.4 hPa ONO 27 km/h 51.8 km/h 50% 0.0 mm
05:24 11.4 °C 1.1 °C 1014.4 hPa ONO 28.4 km/h 50.1 km/h 49.3% 0.0 mm
05:29 11.4 °C 1.1 °C 1014.2 hPa ONO 28.7 km/h 49.9 km/h 49% 0.0 mm
05:34 11.4 °C 1.1 °C 1014.2 hPa ONO 28.2 km/h 44.9 km/h 49% 0.0 mm
05:39 11.4 °C 1.1 °C 1014.3 hPa ONO 28.2 km/h 45.1 km/h 49% 0.0 mm
05:44 11.4 °C 1.1 °C 1014.3 hPa ONO 25.6 km/h 40.2 km/h 49% 0.0 mm
05:49 11.3 °C 1.1 °C 1014.3 hPa ONO 25.1 km/h 38.6 km/h 49.6% 0.0 mm
05:54 11.2 °C 1.2 °C 1014.3 hPa ONO 18.5 km/h 29 km/h 50% 0.0 mm
05:59 11.2 °C 1.2 °C 1014.1 hPa ONO 17.2 km/h 19.3 km/h 50% 0.0 mm
06:04 11.2 °C 1.2 °C 1014.1 hPa Oeste 11.5 km/h 19 km/h 50% 0.0 mm
06:09 11.2 °C 1.2 °C 1014.4 hPa SSO 8.7 km/h 19.3 km/h 50% 0.0 mm
06:14 11.1 °C 1.1 °C 1014.4 hPa SO 6.9 km/h 13 km/h 50% 0.0 mm
06:19 11.1 °C 1.1 °C 1014.4 hPa SSO 5.8 km/h 14.8 km/h 50% 0.0 mm
06:24 11.2 °C 1.1 °C 1014.4 hPa SO 6.9 km/h 15.6 km/h 49.7% 0.0 mm
06:29 11.2 °C 1.1 °C 1014.4 hPa Oeste 7.6 km/h 20.1 km/h 49.8% 0.0 mm
06:34 11.3 °C 1 °C 1014.4 hPa Oeste 8.1 km/h 20.9 km/h 49.2% 0.0 mm
06:39 11.3 °C 0.9 °C 1014.6 hPa Oeste 8.4 km/h 20.4 km/h 49% 0.0 mm
06:44 11.4 °C 1 °C 1014.6 hPa OSO 9.4 km/h 20.9 km/h 49% 0.0 mm
06:49 11.3 °C 1.1 °C 1014.6 hPa Oeste 10 km/h 13.7 km/h 49.5% 0.0 mm
06:54 11.3 °C 1.2 °C 1014.6 hPa ONO 8 km/h 14.5 km/h 50% 0.0 mm
06:59 11.3 °C 1.2 °C 1014.4 hPa Oeste 6.9 km/h 16.7 km/h 50% 0.0 mm
07:04 11.3 °C 1.2 °C 1014.4 hPa Oeste 7.3 km/h 16.1 km/h 50% 0.0 mm
07:09 11.4 °C 1.3 °C 1014.4 hPa Oeste 7.6 km/h 21.7 km/h 50% 0.0 mm
07:14 11.5 °C 1.4 °C 1014.2 hPa Oeste 9.3 km/h 24.5 km/h 50% 0.0 mm
07:19 11.6 °C 1.3 °C 1014.2 hPa Oeste 10.3 km/h 24.1 km/h 49.4% 0.0 mm
07:24 11.6 °C 1.2 °C 1014.2 hPa Oeste 10.3 km/h 20.9 km/h 49% 0.0 mm
07:29 11.6 °C 1.2 °C 1014.1 hPa Oeste 10.3 km/h 16.1 km/h 49% 0.0 mm
07:34 11.6 °C 1.2 °C 1014.1 hPa Oeste 10.1 km/h 22.2 km/h 49% 0.0 mm
07:39 11.7 °C 1.3 °C 1014.4 hPa Oeste 10 km/h 22.5 km/h 49% 0.0 mm
07:44 11.8 °C 1.4 °C 1014.4 hPa ONO 11.4 km/h 32.3 km/h 49% 0.0 mm
07:49 11.9 °C 1.5 °C 1014.4 hPa Oeste 12.2 km/h 33.8 km/h 49% 0.0 mm
07:54 11.9 °C 1.5 °C 1014.5 hPa ONO 13.1 km/h 25.7 km/h 49% 0.0 mm
07:59 11.9 °C 1.5 °C 1014.5 hPa Oeste 13.7 km/h 22.5 km/h 49% 0.0 mm
08:04 11.9 °C 1.5 °C 1014.5 hPa Oeste 10.5 km/h 30.6 km/h 49% 0.0 mm
08:09 11.9 °C 1.5 °C 1014.5 hPa OSO 8.7 km/h 35.2 km/h 49% 0.0 mm
08:14 12.1 °C 1.6 °C 1014.5 hPa Oeste 11.4 km/h 35.4 km/h 48.8% 0.0 mm
08:19 12.2 °C 1.6 °C 1014.5 hPa Oeste 13 km/h 30.6 km/h 48% 0.0 mm
08:24 12.4 °C 1.6 °C 1014.5 hPa Oeste 14.7 km/h 25.7 km/h 47.7% 0.0 mm
08:29 12.4 °C 1.6 °C 1014.5 hPa ONO 15.6 km/h 25.9 km/h 47.9% 0.0 mm
08:34 12.4 °C 1.7 °C 1014.5 hPa ONO 14.4 km/h 25.7 km/h 48% 0.0 mm
08:39 12.5 °C 1.6 °C 1014.5 hPa ONO 13.7 km/h 27.8 km/h 47.5% 0.0 mm
08:44 12.6 °C 1.6 °C 1014.5 hPa ONO 15.4 km/h 27.4 km/h 47% 0.0 mm
08:49 12.7 °C 1.6 °C 1014.5 hPa ONO 16.4 km/h 25.9 km/h 46.7% 0.0 mm
08:54 12.8 °C 1.5 °C 1014.6 hPa ONO 15.4 km/h 25.7 km/h 46% 0.0 mm
08:59 12.8 °C 1.7 °C 1014.6 hPa NO 14.8 km/h 20.9 km/h 46.7% 0.0 mm
09:04 12.8 °C 1.8 °C 1014.6 hPa Oeste 11.7 km/h 22.2 km/h 47% 0.0 mm
09:09 12.8 °C 1.8 °C 1014.7 hPa Oeste 10 km/h 27.8 km/h 47% 0.0 mm
09:14 12.9 °C 1.8 °C 1014.7 hPa Oeste 12.5 km/h 32.3 km/h 47% 0.0 mm
09:19 12.9 °C 1.9 °C 1014.7 hPa Oeste 14 km/h 33.8 km/h 47% 0.0 mm
09:24 13.1 °C 2 °C 1014.7 hPa Oeste 14.5 km/h 33.8 km/h 46.9% 0.0 mm
09:29 13.1 °C 2.1 °C 1014.6 hPa Oeste 14.8 km/h 25.7 km/h 47% 0.0 mm
09:34 13.1 °C 2 °C 1014.6 hPa OSO 14.3 km/h 31.5 km/h 46.9% 0.0 mm
09:39 13.2 °C 2.1 °C 1014.6 hPa Oeste 14 km/h 32.2 km/h 47% 0.0 mm
09:44 13.3 °C 2.2 °C 1014.5 hPa OSO 12.9 km/h 30.9 km/h 47% 0.0 mm
09:49 13.4 °C 2 °C 1014.5 hPa OSO 12.2 km/h 32.2 km/h 46.1% 0.0 mm
09:54 13.4 °C 2 °C 1014.5 hPa Oeste 13.4 km/h 32.2 km/h 46% 0.0 mm
09:59 13.5 °C 2.1 °C 1014.4 hPa Oeste 14 km/h 24.1 km/h 46% 0.0 mm
10:04 13.6 °C 2.2 °C 1014.4 hPa Oeste 13.4 km/h 22.5 km/h 46.1% 0.0 mm
10:09 13.7 °C 2.4 °C 1014.5 hPa OSO 13 km/h 22.5 km/h 46.4% 0.0 mm
10:14 13.8 °C 2.4 °C 1014.5 hPa OSO 10.8 km/h 23.3 km/h 46% 0.0 mm
10:19 13.8 °C 2.4 °C 1014.5 hPa Oeste 9.5 km/h 24.1 km/h 46% 0.0 mm
10:24 13.8 °C 2.4 °C 1014.5 hPa OSO 11 km/h 24.1 km/h 46% 0.0 mm
10:29 13.8 °C 2.4 °C 1014.4 hPa Oeste 11.9 km/h 24.1 km/h 46% 0.0 mm
10:34 13.8 °C 2.4 °C 1014.4 hPa Oeste 13.2 km/h 24.1 km/h 46% 0.0 mm
10:39 13.8 °C 2.4 °C 1014.4 hPa Oeste 14 km/h 31.5 km/h 46% 0.0 mm
10:44 13.8 °C 2.4 °C 1014.2 hPa OSO 13.8 km/h 32.2 km/h 46% 0.0 mm
10:49 13.9 °C 2.3 °C 1014.2 hPa OSO 13.7 km/h 25.9 km/h 45.4% 0.0 mm
10:54 14 °C 2.5 °C 1014.2 hPa OSO 13.3 km/h 30.6 km/h 45.8% 0.0 mm
10:59 14.1 °C 2.5 °C 1014.2 hPa Oeste 13 km/h 30.6 km/h 45.5% 0.0 mm
11:04 14 °C 2.6 °C 1014.2 hPa Oeste 12.5 km/h 27.8 km/h 45.9% 0.0 mm
11:09 14.1 °C 2.6 °C 1014.2 hPa ONO 12.2 km/h 27.8 km/h 46% 0.0 mm
11:14 14.1 °C 2.5 °C 1014.1 hPa OSO 13.9 km/h 29.6 km/h 45.6% 0.0 mm
11:19 14.2 °C 2.5 °C 1014.1 hPa Oeste 14.8 km/h 30.9 km/h 45.4% 0.0 mm
11:24 14.2 °C 2.5 °C 1014.1 hPa SO 15.8 km/h 32.2 km/h 45% 0.0 mm
11:29 14.3 °C 2.6 °C 1013.9 hPa OSO 16.4 km/h 32.2 km/h 45.5% 0.0 mm
11:34 14.3 °C 2.6 °C 1013.9 hPa OSO 16.2 km/h 31.7 km/h 45.3% 0.0 mm
11:39 14.3 °C 2.6 °C 1013.9 hPa OSO 16.1 km/h 32.2 km/h 45.2% 0.0 mm
11:44 14.4 °C 2.7 °C 1013.8 hPa OSO 17.5 km/h 30.6 km/h 45.4% 0.0 mm
11:49 14.4 °C 2.6 °C 1013.8 hPa OSO 18.4 km/h 37 km/h 45% 0.0 mm
11:54 14.4 °C 2.8 °C 1013.8 hPa OSO 17.1 km/h 37 km/h 45.4% 0.0 mm
11:59 14.5 °C 2.7 °C 1013.6 hPa Oeste 16.4 km/h 30.6 km/h 45% 0.0 mm
12:04 14.6 °C 3.1 °C 1013.6 hPa Oeste 14.1 km/h 27.4 km/h 46% 0.0 mm
12:09 14.7 °C 3.1 °C 1013.6 hPa OSO 13 km/h 25.1 km/h 45.8% 0.0 mm
12:14 14.8 °C 3 °C 1013.4 hPa OSO 13.4 km/h 25.9 km/h 45.2% 0.0 mm
12:19 14.8 °C 3 °C 1013.4 hPa Oeste 13.7 km/h 24.5 km/h 45.2% 0.0 mm
12:24 14.9 °C 3.1 °C 1013.4 hPa OSO 14.4 km/h 24.1 km/h 45% 0.0 mm
12:29 15.1 °C 3.3 °C 1012.9 hPa OSO 14.8 km/h 22.5 km/h 45% 0.0 mm
12:34 15.3 °C 3.3 °C 1012.9 hPa OSO 12.4 km/h 22.5 km/h 44.6% 0.0 mm
12:39 15.4 °C 3.2 °C 1012.9 hPa OSO 11.1 km/h 27.8 km/h 44% 0.0 mm
12:44 15.4 °C 3.2 °C 1012.9 hPa OSO 12.7 km/h 27.4 km/h 44% 0.0 mm
12:49 15.6 °C 3.3 °C 1012.9 hPa OSO 13.7 km/h 20.9 km/h 44% 0.0 mm
12:54 15.6 °C 3.2 °C 1012.9 hPa Oeste 12.8 km/h 33.5 km/h 43.4% 0.0 mm
12:59 15.8 °C 3.4 °C 1012.5 hPa ONO 12.2 km/h 33.8 km/h 43.6% 0.0 mm
13:04 15.9 °C 3.3 °C 1012.5 hPa Oeste 17.2 km/h 37 km/h 42.9% 0.0 mm
13:09 16 °C 3.1 °C 1012.5 hPa ONO 19.8 km/h 39.6 km/h 42.2% 0.0 mm
13:14 16.2 °C 3.2 °C 1012.3 hPa Oeste 20 km/h 40.2 km/h 42% 0.0 mm
13:19 16.2 °C 3.3 °C 1012.3 hPa Oeste 20.1 km/h 35.9 km/h 41.9% 0.0 mm
13:24 16.3 °C 3.1 °C 1012.3 hPa Oeste 19.9 km/h 35.4 km/h 41.2% 0.0 mm
13:29 16.3 °C 3 °C 1011.9 hPa ONO 19.8 km/h 33.8 km/h 41% 0.0 mm
13:34 16.4 °C 3.1 °C 1011.9 hPa ONO 18.1 km/h 27.8 km/h 41% 0.0 mm
13:39 16.7 °C 3.2 °C 1011.9 hPa Oeste 17.2 km/h 27.4 km/h 40.7% 0.0 mm
13:44 16.7 °C 3.1 °C 1011.6 hPa Oeste 16.2 km/h 33.5 km/h 40% 0.0 mm
13:49 16.8 °C 3 °C 1011.6 hPa Oeste 15.6 km/h 41.2 km/h 39.6% 0.0 mm
13:54 16.8 °C 3 °C 1011.6 hPa Oeste 17.7 km/h 41.8 km/h 39.6% 0.0 mm
13:59 16.9 °C 3.1 °C 1011.5 hPa ONO 19 km/h 32.2 km/h 39.5% 0.0 mm
14:04 16.9 °C 2.9 °C 1011.5 hPa Oeste 17.1 km/h 34.3 km/h 39% 0.0 mm
14:09 16.9 °C 3 °C 1011.5 hPa Oeste 16.1 km/h 33.8 km/h 39.3% 0.0 mm
14:14 17.1 °C 3.1 °C 1011.4 hPa ONO 17.5 km/h 33.8 km/h 39.3% 0.0 mm
14:19 17.2 °C 3 °C 1011.4 hPa ONO 18.4 km/h 35.2 km/h 38.8% 0.0 mm
14:24 17.2 °C 3.1 °C 1011.4 hPa ONO 17.6 km/h 35.4 km/h 39% 0.0 mm
14:29 17.1 °C 3 °C 1011.4 hPa ONO 17.2 km/h 39.6 km/h 39% 0.0 mm
14:34 17.1 °C 3.1 °C 1011.4 hPa ONO 17.7 km/h 40.2 km/h 39.2% 0.0 mm
14:39 17.1 °C 3.2 °C 1011.4 hPa ONO 18 km/h 25.7 km/h 39.5% 0.0 mm
14:44 17.2 °C 3.4 °C 1011.3 hPa NO 13.1 km/h 19.8 km/h 39.9% 0.0 mm
14:49 17.2 °C 3.3 °C 1011.3 hPa ONO 10 km/h 35.2 km/h 39.6% 0.0 mm
14:54 17 °C 3.3 °C 1011.3 hPa ONO 12.5 km/h 35.4 km/h 40% 0.0 mm
14:59 16.9 °C 3.3 °C 1011.0 hPa Oeste 14 km/h 39.6 km/h 40.2% 0.0 mm
15:04 17 °C 3.3 °C 1011.0 hPa ONO 15.1 km/h 40.2 km/h 40% 0.0 mm
15:09 17.1 °C 3.6 °C 1011.0 hPa ONO 15.6 km/h 38.6 km/h 40.7% 0.0 mm
15:14 17.1 °C 3.7 °C 1010.9 hPa ONO 16.1 km/h 33.8 km/h 41% 0.0 mm
15:19 17.2 °C 3.8 °C 1010.9 hPa Oeste 16.4 km/h 32.2 km/h 41% 0.0 mm
15:24 17.2 °C 3.8 °C 1010.9 hPa OSO 14.7 km/h 30.6 km/h 41% 0.0 mm
15:29 17.2 °C 3.8 °C 1010.7 hPa Oeste 13.7 km/h 29.6 km/h 41% 0.0 mm
15:34 17.2 °C 3.9 °C 1010.7 hPa ONO 12.5 km/h 27 km/h 41% 0.0 mm
15:39 17.3 °C 3.9 °C 1010.7 hPa Oeste 11.9 km/h 27.8 km/h 41% 0.0 mm
15:44 17.4 °C 4 °C 1010.4 hPa Oeste 12.1 km/h 24.1 km/h 41% 0.0 mm
15:49 17.5 °C 4.1 °C 1010.4 hPa Oeste 12.2 km/h 42.3 km/h 41% 0.0 mm
15:54 17.6 °C 4.2 °C 1010.4 hPa Oeste 13.2 km/h 42.6 km/h 41% 0.0 mm
15:59 17.6 °C 4.2 °C 1010.3 hPa ONO 13.7 km/h 40.7 km/h 41% 0.0 mm
16:04 17.7 °C 4.2 °C 1010.3 hPa ONO 17.1 km/h 40.2 km/h 41% 0.0 mm
16:09 17.7 °C 4.3 °C 1010.4 hPa ONO 19 km/h 43.1 km/h 41% 0.0 mm
16:14 17.8 °C 4.3 °C 1010.4 hPa ONO 19.7 km/h 43.5 km/h 41% 0.0 mm
16:19 17.9 °C 4.4 °C 1010.4 hPa ONO 20.1 km/h 40.2 km/h 41% 0.0 mm
16:24 17.9 °C 4.5 °C 1010.5 hPa Oeste 16.7 km/h 29.6 km/h 40.9% 0.0 mm
16:29 18 °C 4.2 °C 1010.5 hPa ONO 14.8 km/h 38.9 km/h 40.1% 0.0 mm
16:34 17.9 °C 4.1 °C 1010.5 hPa Oeste 18 km/h 44.4 km/h 40% 0.0 mm
16:39 17.9 °C 4.1 °C 1010.7 hPa ONO 19.8 km/h 45.1 km/h 40% 0.0 mm
16:44 17.8 °C 4.3 °C 1010.7 hPa ONO 19.3 km/h 37 km/h 40.9% 0.0 mm
16:49 17.7 °C 4.3 °C 1010.7 hPa ONO 19 km/h 38.9 km/h 41% 0.0 mm
16:54 17.7 °C 4.4 °C 1010.7 hPa ONO 20.9 km/h 38.6 km/h 41.5% 0.0 mm
16:59 17.7 °C 4.6 °C 1010.7 hPa ONO 22.1 km/h 35.4 km/h 42% 0.0 mm
17:04 17.6 °C 4.5 °C 1010.7 hPa ONO 18.8 km/h 38.9 km/h 42% 0.0 mm
17:09 17.6 °C 4.7 °C 1010.7 hPa ONO 17.2 km/h 38.6 km/h 42.5% 0.0 mm
17:14 17.5 °C 4.8 °C 1010.5 hPa ONO 17.9 km/h 30.6 km/h 42.9% 0.0 mm
17:19 17.4 °C 4.7 °C 1010.5 hPa ONO 18.4 km/h 34.3 km/h 43% 0.0 mm
17:24 17.4 °C 4.7 °C 1010.5 hPa ONO 16.9 km/h 33.8 km/h 43% 0.0 mm
17:29 17.3 °C 4.6 °C 1010.5 hPa ONO 16.1 km/h 27.4 km/h 43% 0.0 mm
17:34 17.3 °C 4.7 °C 1010.5 hPa ONO 16.3 km/h 34.6 km/h 43.1% 0.0 mm
17:39 17.4 °C 4.7 °C 1010.5 hPa ONO 16.4 km/h 42.6 km/h 43.2% 0.0 mm
17:44 17.4 °C 4.8 °C 1010.5 hPa ONO 19.7 km/h 41.8 km/h 43.4% 0.0 mm
17:49 17.3 °C 5 °C 1010.5 hPa ONO 21.7 km/h 37 km/h 44% 0.0 mm
17:54 17.3 °C 4.9 °C 1010.7 hPa ONO 20.7 km/h 35.4 km/h 44% 0.0 mm
17:59 17.3 °C 5 °C 1010.7 hPa ONO 20.1 km/h 36.2 km/h 44.3% 0.0 mm
18:04 17.3 °C 5.2 °C 1010.7 hPa ONO 20.6 km/h 37 km/h 45% 0.0 mm
18:09 17.2 °C 5.2 °C 1010.7 hPa Oeste 20.9 km/h 37 km/h 45% 0.0 mm
18:14 17.2 °C 5.2 °C 1010.7 hPa Oeste 17.8 km/h 27.4 km/h 45% 0.0 mm
18:19 17.2 °C 5.4 °C 1010.7 hPa ONO 16.1 km/h 29.6 km/h 45.8% 0.0 mm
18:24 17.2 °C 5.4 °C 1011.0 hPa Oeste 16.3 km/h 29 km/h 46% 0.0 mm
18:29 17.2 °C 5.4 °C 1011.0 hPa Oeste 16.4 km/h 40.7 km/h 46% 0.0 mm
18:34 17.2 °C 5.4 °C 1011.0 hPa Oeste 14.9 km/h 40.7 km/h 46% 0.0 mm
18:39 17.1 °C 5.7 °C 1011.3 hPa Oeste 14 km/h 27 km/h 46.9% 0.0 mm
18:44 17.1 °C 5.7 °C 1011.3 hPa Oeste 13.8 km/h 27.8 km/h 47% 0.0 mm
18:49 17 °C 5.7 °C 1011.3 hPa Oeste 13.7 km/h 27.4 km/h 47.3% 0.0 mm
18:54 16.9 °C 5.8 °C 1011.5 hPa Oeste 12.6 km/h 20.9 km/h 48% 0.0 mm
18:59 16.9 °C 5.8 °C 1011.5 hPa ONO 11.9 km/h 34.3 km/h 48% 0.0 mm
19:04 16.9 °C 5.9 °C 1011.5 hPa Oeste 14.4 km/h 35.2 km/h 48% 0.0 mm
19:09 16.9 °C 5.9 °C 1011.5 hPa Oeste 15.6 km/h 35.4 km/h 48% 0.0 mm
19:14 17 °C 5.9 °C 1011.5 hPa Oeste 16.6 km/h 35.4 km/h 48% 0.0 mm
19:19 17 °C 5.9 °C 1011.5 hPa ONO 17.2 km/h 40.7 km/h 48% 0.0 mm
19:24 17 °C 5.9 °C 1011.7 hPa Oeste 17.9 km/h 40.2 km/h 48% 0.0 mm
19:29 16.9 °C 5.9 °C 1011.7 hPa ONO 18.4 km/h 30.6 km/h 48.2% 0.0 mm
19:34 16.9 °C 6.1 °C 1011.7 hPa ONO 17.6 km/h 31.5 km/h 49% 0.0 mm
19:39 16.9 °C 6.1 °C 1011.8 hPa NO 17.2 km/h 42.6 km/h 49% 0.0 mm
19:44 16.8 °C 6 °C 1011.8 hPa ONO 17.9 km/h 41.8 km/h 49% 0.0 mm
19:49 16.8 °C 6 °C 1011.8 hPa ONO 18.4 km/h 37 km/h 49% 0.0 mm
19:54 16.7 °C 6.1 °C 1011.8 hPa ONO 19.5 km/h 37 km/h 49.6% 0.0 mm
19:59 16.6 °C 6.1 °C 1011.8 hPa ONO 20.1 km/h 33.8 km/h 50% 0.0 mm
20:04 16.4 °C 6.2 °C 1011.8 hPa ONO 18.3 km/h 30.6 km/h 50.7% 0.0 mm
20:09 16.4 °C 6.2 °C 1011.8 hPa ONO 17.2 km/h 31.5 km/h 51% 0.0 mm
20:14 16.4 °C 6.2 °C 1011.7 hPa ONO 18.7 km/h 34.3 km/h 51% 0.0 mm
20:19 16.4 °C 6.2 °C 1011.7 hPa ONO 19.8 km/h 33.8 km/h 51% 0.0 mm
20:24 16.3 °C 6.2 °C 1011.9 hPa ONO 19.8 km/h 30.6 km/h 51% 0.0 mm
20:29 16.3 °C 6.1 °C 1011.9 hPa ONO 19.8 km/h 40.7 km/h 51% 0.0 mm
20:34 16.3 °C 6.1 °C 1011.9 hPa ONO 19.3 km/h 40.2 km/h 51% 0.0 mm
20:39 16.4 °C 6.2 °C 1012.0 hPa ONO 19 km/h 33.8 km/h 51% 0.0 mm
20:44 16.3 °C 6.3 °C 1012.0 hPa ONO 19.5 km/h 33.8 km/h 51.5% 0.0 mm
20:49 16.3 °C 6.4 °C 1012.0 hPa ONO 19.8 km/h 32.2 km/h 52% 0.0 mm
20:54 16.2 °C 6.3 °C 1012.0 hPa ONO 18.7 km/h 35.9 km/h 52% 0.0 mm
20:59 16.2 °C 6.5 °C 1012.0 hPa ONO 18 km/h 37 km/h 52.9% 0.0 mm
21:04 16.1 °C 6.5 °C 1012.0 hPa ONO 19.9 km/h 37 km/h 53% 0.0 mm
21:09 16 °C 6.5 °C 1012.0 hPa ONO 20.9 km/h 33.8 km/h 53% 0.0 mm
21:14 16 °C 6.5 °C 1012.0 hPa ONO 19.7 km/h 38.9 km/h 53.1% 0.0 mm
21:19 15.9 °C 6.6 °C 1012.0 hPa ONO 19 km/h 38.6 km/h 54% 0.0 mm
21:24 15.9 °C 6.6 °C 1012.3 hPa ONO 17.4 km/h 42.6 km/h 54% 0.0 mm
21:29 15.8 °C 6.5 °C 1012.3 hPa ONO 16.4 km/h 41.8 km/h 54% 0.0 mm
21:34 15.8 °C 6.7 °C 1012.3 hPa ONO 16.9 km/h 37 km/h 54.8% 0.0 mm
21:39 15.8 °C 6.8 °C 1012.4 hPa ONO 17.2 km/h 37 km/h 55% 0.0 mm
21:44 15.7 °C 6.7 °C 1012.4 hPa ONO 15.7 km/h 25.7 km/h 55% 0.0 mm
21:49 15.7 °C 6.7 °C 1012.4 hPa ONO 14.8 km/h 25.9 km/h 55% 0.0 mm
21:54 15.7 °C 6.9 °C 1012.7 hPa NO 13.7 km/h 27.8 km/h 56% 0.0 mm
21:59 15.7 °C 6.9 °C 1012.7 hPa ONO 13 km/h 35.2 km/h 56% 0.0 mm
22:04 15.7 °C 6.9 °C 1012.7 hPa ONO 15.8 km/h 35.4 km/h 56% 0.0 mm
22:09 15.7 °C 6.9 °C 1012.7 hPa ONO 17.2 km/h 32.2 km/h 56% 0.0 mm
22:14 15.7 °C 6.9 °C 1012.6 hPa ONO 16.2 km/h 30.6 km/h 56% 0.0 mm
22:19 15.6 °C 6.8 °C 1012.6 hPa ONO 15.6 km/h 29 km/h 56% 0.0 mm
22:24 15.6 °C 6.8 °C 1012.7 hPa Oeste 14.6 km/h 24.5 km/h 56% 0.0 mm
22:29 15.6 °C 6.8 °C 1012.7 hPa Oeste 14 km/h 24.1 km/h 56% 0.0 mm
22:34 15.4 °C 6.7 °C 1012.7 hPa Oeste 12.2 km/h 22.2 km/h 56% 0.0 mm
22:39 15.4 °C 6.7 °C 1012.7 hPa Oeste 11.1 km/h 22.5 km/h 56% 0.0 mm
22:44 15.4 °C 6.7 °C 1012.7 hPa Oeste 10.6 km/h 20.9 km/h 56% 0.0 mm
22:49 15.4 °C 6.7 °C 1012.7 hPa ONO 10.3 km/h 20.9 km/h 56% 0.0 mm
22:54 15.3 °C 6.4 °C 1012.7 hPa Oeste 9.3 km/h 16.7 km/h 55.3% 0.0 mm
22:59 15.3 °C 6.3 °C 1012.7 hPa Oeste 8.7 km/h 16.1 km/h 55% 0.0 mm
23:04 15.3 °C 6.3 °C 1012.7 hPa Oeste 9.6 km/h 22.5 km/h 55% 0.0 mm
23:09 15.2 °C 6.2 °C 1012.8 hPa ONO 10 km/h 22.5 km/h 55% 0.0 mm
23:14 15.2 °C 6.2 °C 1012.8 hPa Oeste 10.7 km/h 20.9 km/h 55% 0.0 mm
23:19 15.1 °C 6.1 °C 1012.8 hPa ONO 11.1 km/h 29.6 km/h 55% 0.0 mm
23:24 15.1 °C 6.1 °C 1012.8 hPa ONO 13 km/h 29 km/h 55% 0.0 mm
23:29 15.1 °C 6.1 °C 1012.7 hPa ONO 14 km/h 25.9 km/h 55% 0.0 mm
23:34 15 °C 6 °C 1012.7 hPa ONO 14 km/h 25.7 km/h 55% 0.0 mm
23:39 14.9 °C 5.9 °C 1012.7 hPa ONO 14 km/h 22.5 km/h 55% 0.0 mm
23:44 14.8 °C 5.9 °C 1012.6 hPa ONO 12.9 km/h 22.5 km/h 55.3% 0.0 mm
23:49 14.7 °C 6 °C 1012.6 hPa ONO 12.2 km/h 24.5 km/h 55.8% 0.0 mm
23:54 14.8 °C 5.8 °C 1012.6 hPa ONO 13.9 km/h 29.6 km/h 55% 0.0 mm
23:59 14.8 °C 5.8 °C 1012.4 hPa ONO 14.8 km/h 29 km/h 55% 0.0 mm
Murcia-Puente Tocinos, Espa?a
Compliments of Weather Underground - 3.25 mb

La estación de MeteoMurcia.com, publica sus datos en los siguientes proyectos:

Weather Underground PWS IMURCIAP2 Meteoclimatic www.awekas.at

W3Counter
Web Analytics